Time;durP1;ratioP1;P1;durP2;ratioP2;P2;SDS_P1;SDS_P2;PMS_P1;PMS_P2;Temp;Humidity;BMP_temperature;BMP_pressure;BME280_temperature;BME280_humidity;BME280_pressure;Samples;Min_cycle;Max_cycle;Signal;HPM_P1;HPM_P2
2022/12/08 00:01:26;;;;;;;11.60;8.90;;;3.10;99.90;;;;;;5016616;28;20469;-66
2022/12/08 00:03:52;;;;;;;10.23;8.33;;;3.00;99.90;;;;;;5016867;28;20432;-66
2022/12/08 00:09:22;;;;;;;10.40;8.33;;;3.00;99.90;;;;;;5009919;28;20526;-67
2022/12/08 00:11:56;;;;;;;15.10;8.67;;;2.90;99.90;;;;;;5007343;28;20926;-66
2022/12/08 00:14:24;;;;;;;12.47;8.90;;;2.90;99.90;;;;;;5012265;28;20433;-65
2022/12/08 00:16:50;;;;;;;11.43;8.13;;;2.80;99.90;;;;;;5016706;28;20434;-66
2022/12/08 00:19:16;;;;;;;11.07;7.50;;;2.80;99.90;;;;;;5016802;28;20456;-66
2022/12/08 00:21:41;;;;;;;12.97;9.27;;;2.70;99.90;;;;;;5015344;28;20559;-66
2022/12/08 00:24:07;;;;;;;8.97;7.77;;;2.60;99.90;;;;;;5021578;28;20681;-68
2022/12/08 00:26:33;;;;;;;10.20;8.47;;;2.60;99.90;;;;;;5022411;28;20182;-65
2022/12/08 00:28:58;;;;;;;11.53;9.00;;;2.50;99.90;;;;;;5018109;28;20958;-66
2022/12/08 00:31:24;;;;;;;12.00;8.73;;;2.40;99.90;;;;;;5018202;28;20232;-66
2022/12/08 00:33:49;;;;;;;9.97;7.83;;;2.40;99.90;;;;;;5018302;28;20237;-66
2022/12/08 00:36:15;;;;;;;11.80;8.60;;;2.30;99.90;;;;;;5019274;28;20190;-67
2022/12/08 00:38:41;;;;;;;13.17;9.00;;;2.20;99.90;;;;;;5026100;28;20186;-66
2022/12/08 00:41:12;;;;;;;11.97;9.60;;;2.20;99.90;;;;;;5021915;28;20623;-67
2022/12/08 00:43:37;;;;;;;11.63;9.50;;;2.10;99.90;;;;;;5014801;28;20437;-66
2022/12/08 00:46:03;;;;;;;14.23;9.83;;;2.10;99.90;;;;;;5021924;28;20437;-66
2022/12/08 00:48:29;;;;;;;13.10;9.60;;;2.10;99.90;;;;;;5022565;28;20190;-66
2022/12/08 00:50:54;;;;;;;15.53;9.33;;;2.00;99.90;;;;;;5023014;28;20186;-66
2022/12/08 00:53:20;;;;;;;13.10;9.60;;;2.00;99.90;;;;;;5020226;28;20266;-66
2022/12/08 00:55:45;;;;;;;13.87;10.40;;;1.90;99.90;;;;;;5017143;28;20269;-66
2022/12/08 00:58:11;;;;;;;11.67;9.23;;;1.90;99.90;;;;;;5020184;28;20521;-66
2022/12/08 01:00:39;;;;;;;13.97;9.90;;;1.90;99.90;;;;;;5023607;28;20210;-66
2022/12/08 01:03:05;;;;;;;14.00;10.07;;;1.90;99.90;;;;;;5022996;28;20564;-66
2022/12/08 01:05:30;;;;;;;12.60;10.10;;;1.90;99.90;;;;;;5017490;28;20441;-67
2022/12/08 01:07:56;;;;;;;13.67;9.57;;;1.80;99.90;;;;;;5025594;28;20189;-65
2022/12/08 01:10:21;;;;;;;13.60;10.50;;;1.80;99.90;;;;;;5022344;28;20216;-66
2022/12/08 01:12:47;;;;;;;13.80;9.80;;;1.70;99.90;;;;;;5021085;28;20266;-66
2022/12/08 01:15:12;;;;;;;10.33;8.83;;;1.70;99.90;;;;;;5012752;28;20206;-68
2022/12/08 01:17:38;;;;;;;12.93;10.30;;;1.70;99.90;;;;;;5022178;28;20186;-67
2022/12/08 01:20:04;;;;;;;11.23;8.70;;;1.60;99.90;;;;;;5016045;28;20203;-66
2022/12/08 01:22:32;;;;;;;13.97;9.30;;;1.60;99.90;;;;;;5015709;28;20619;-68
2022/12/08 01:24:57;;;;;;;15.77;10.97;;;1.60;99.90;;;;;;5025510;28;20433;-67
2022/12/08 01:27:23;;;;;;;12.20;9.83;;;1.40;99.90;;;;;;5023877;28;20438;-67
2022/12/08 01:29:48;;;;;;;11.97;9.13;;;1.40;99.90;;;;;;5025250;28;20202;-66
2022/12/08 01:32:14;;;;;;;11.93;9.30;;;1.40;99.90;;;;;;5016752;28;20209;-67
2022/12/08 01:34:39;;;;;;;12.20;9.20;;;1.30;99.90;;;;;;5030055;28;20178;-66
2022/12/08 01:37:05;;;;;;;14.33;10.70;;;1.40;99.90;;;;;;5025627;28;20191;-68
2022/12/08 01:39:30;;;;;;;13.50;10.10;;;1.30;99.90;;;;;;5020557;28;20215;-67
2022/12/08 01:41:56;;;;;;;13.10;9.20;;;1.30;99.90;;;;;;5026435;28;20599;-67
2022/12/08 01:44:21;;;;;;;16.57;9.93;;;1.20;99.90;;;;;;5023005;28;20671;-66
2022/12/08 01:46:47;;;;;;;12.57;10.03;;;1.20;99.90;;;;;;5011833;28;20183;-67
2022/12/08 01:49:31;;;;;;;11.70;9.37;;;1.30;99.90;;;;;;5012272;28;20201;-67
2022/12/08 01:52:34;;;;;;;15.07;10.20;;;1.30;99.90;;;;;;5010334;28;20429;-67
2022/12/08 01:55:11;;;;;;;14.87;10.43;;;1.30;99.90;;;;;;4992912;28;20440;-67
2022/12/08 01:57:42;;;;;;;14.63;9.13;;;1.30;99.90;;;;;;5011475;28;20429;-66
2022/12/08 02:00:11;;;;;;;12.80;9.30;;;1.20;99.90;;;;;;5011800;28;20504;-67
2022/12/08 02:02:59;;;;;;;13.27;8.87;;;1.10;99.90;;;;;;5012377;28;20438;-67
2022/12/08 02:05:31;;;;;;;13.70;8.50;;;1.10;99.90;;;;;;5010630;28;20491;-67
2022/12/08 02:07:59;;;;;;;16.40;9.73;;;1.10;99.90;;;;;;5011051;28;20490;-67
2022/12/08 02:10:28;;;;;;;11.03;8.73;;;1.10;99.90;;;;;;5011060;28;20476;-69
2022/12/08 02:12:56;;;;;;;9.90;8.37;;;1.10;99.90;;;;;;5013368;28;20433;-67
2022/12/08 02:15:35;;;;;;;9.83;8.83;;;1.10;99.90;;;;;;5007713;28;20450;-67
2022/12/08 02:18:30;;;;;;;12.70;9.20;;;1.10;99.90;;;;;;5011663;28;20433;-68
2022/12/08 02:21:06;;;;;;;13.13;10.10;;;1.10;99.90;;;;;;5011957;28;20458;-67
2022/12/08 02:24:06;;;;;;;11.50;8.70;;;1.10;99.90;;;;;;5011247;28;20425;-68
2022/12/08 02:27:19;;;;;;;11.80;8.40;;;1.10;99.90;;;;;;5011423;28;20429;-69
2022/12/08 02:30:14;;;;;;;13.00;8.50;;;1.00;99.90;;;;;;4931816;29;20826;-67
2022/12/08 02:32:58;;;;;;;9.90;8.20;;;0.80;99.90;;;;;;5010000;28;20443;-66
2022/12/08 02:35:35;;;;;;;10.87;9.20;;;0.70;99.90;;;;;;5008346;28;20434;-67
2022/12/08 02:38:09;;;;;;;13.17;8.43;;;0.70;99.90;;;;;;5007764;28;20479;-67
2022/12/08 02:40:59;;;;;;;13.70;9.70;;;0.80;99.90;;;;;;5010141;28;20468;-67
2022/12/08 02:43:47;;;;;;;14.17;10.57;;;0.60;99.90;;;;;;5009297;28;20477;-66
2022/12/08 02:46:32;;;;;;;15.13;10.17;;;0.70;99.90;;;;;;5009225;28;20434;-66
2022/12/08 02:48:59;;;;;;;12.30;9.03;;;0.60;99.90;;;;;;5003207;28;20453;-67
2022/12/08 02:51:25;;;;;;;16.10;10.13;;;0.70;99.90;;;;;;5010487;28;20790;-67
2022/12/08 02:53:51;;;;;;;11.93;8.70;;;0.70;99.90;;;;;;5016332;28;20443;-68
2022/12/08 02:56:43;;;;;;;12.37;9.23;;;0.70;99.90;;;;;;5015811;28;20773;-67
2022/12/08 02:59:12;;;;;;;16.30;10.03;;;0.70;99.90;;;;;;5008275;28;20940;-67
2022/12/08 03:01:58;;;;;;;12.03;10.10;;;0.60;99.90;;;;;;5009903;28;20873;-66
2022/12/08 03:04:45;;;;;;;13.53;9.20;;;0.70;99.90;;;;;;5007577;28;22253;-66
2022/12/08 03:07:26;;;;;;;12.17;8.77;;;0.60;99.90;;;;;;5009623;28;20430;-66
2022/12/08 03:10:17;;;;;;;12.87;9.57;;;0.60;99.90;;;;;;5009833;28;20508;-66
2022/12/08 03:12:50;;;;;;;11.87;8.87;;;0.60;99.90;;;;;;5003592;28;21013;-67
2022/12/08 03:15:19;;;;;;;12.90;8.90;;;0.50;99.90;;;;;;5012058;28;20445;-67
2022/12/08 03:17:55;;;;;;;13.20;9.60;;;0.40;99.90;;;;;;5018583;28;20432;-67
2022/12/08 03:20:23;;;;;;;11.80;9.27;;;0.40;99.90;;;;;;5019597;28;20511;-66
2022/12/08 03:22:53;;;;;;;12.60;8.80;;;0.40;99.90;;;;;;5023390;28;20792;-67
2022/12/08 03:25:22;;;;;;;11.90;10.50;;;0.40;99.90;;;;;;5022182;28;20428;-68
2022/12/08 03:27:49;;;;;;;12.23;10.10;;;0.40;99.90;;;;;;5015807;28;20436;-67
2022/12/08 03:30:15;;;;;;;15.53;9.07;;;0.40;99.90;;;;;;5019229;28;20454;-67
2022/12/08 03:32:56;;;;;;;13.40;8.13;;;0.30;99.90;;;;;;5019848;28;20794;-67
2022/12/08 03:35:25;;;;;;;12.33;9.30;;;0.20;99.90;;;;;;5015024;28;20190;-67
2022/12/08 03:37:51;;;;;;;11.23;8.13;;;0.10;99.90;;;;;;5017606;28;20443;-67
2022/12/08 03:40:19;;;;;;;9.07;7.43;;;0.00;99.90;;;;;;5019670;28;20473;-67
2022/12/08 03:42:44;;;;;;;13.67;8.97;;;0.00;99.90;;;;;;5017915;28;20270;-67
2022/12/08 03:45:10;;;;;;;13.30;9.80;;;0.00;99.90;;;;;;5012347;28;20588;-67
2022/12/08 03:47:36;;;;;;;15.03;10.13;;;0.10;99.90;;;;;;5028262;28;20179;-66
2022/12/08 03:50:03;;;;;;;12.37;9.10;;;0.10;99.90;;;;;;5017820;28;20457;-67
2022/12/08 03:52:28;;;;;;;12.67;8.30;;;0.10;99.90;;;;;;5020872;28;20478;-66
2022/12/08 03:54:54;;;;;;;10.80;8.20;;;0.20;99.90;;;;;;5017902;28;20452;-67
2022/12/08 03:57:20;;;;;;;17.27;10.23;;;0.20;99.90;;;;;;5018565;28;20194;-67
2022/12/08 03:59:46;;;;;;;15.10;7.80;;;0.20;99.90;;;;;;5019156;28;20586;-67
2022/12/08 04:02:11;;;;;;;19.03;9.90;;;0.20;99.90;;;;;;5012040;28;20438;-66
2022/12/08 04:04:37;;;;;;;16.40;8.90;;;0.10;99.90;;;;;;5000662;28;20640;-66
2022/12/08 04:07:02;;;;;;;12.97;9.57;;;0.10;99.90;;;;;;5012930;28;20205;-68
2022/12/08 04:09:28;;;;;;;10.63;8.07;;;0.10;99.90;;;;;;5012470;28;20309;-66
2022/12/08 04:11:53;;;;;;;11.40;8.57;;;0.10;99.90;;;;;;5010910;28;20214;-66
2022/12/08 04:14:19;;;;;;;13.07;8.60;;;0.10;99.90;;;;;;5020508;28;20250;-69
2022/12/08 04:16:44;;;;;;;12.77;8.77;;;0.00;99.90;;;;;;5021434;28;20182;-65
2022/12/08 04:19:10;;;;;;;9.67;7.90;;;0.00;99.90;;;;;;5013708;28;20714;-66
2022/12/08 04:21:35;;;;;;;12.83;8.80;;;0.00;99.90;;;;;;5027587;28;20580;-68
2022/12/08 04:24:01;;;;;;;10.63;8.00;;;0.10;99.90;;;;;;5029898;28;20545;-66
2022/12/08 04:26:27;;;;;;;10.10;7.77;;;0.10;99.90;;;;;;5013781;28;20182;-67
2022/12/08 04:28:52;;;;;;;13.00;8.97;;;0.10;99.90;;;;;;5013146;28;20207;-67
2022/12/08 04:31:18;;;;;;;8.77;7.10;;;0.10;99.90;;;;;;5012076;28;20274;-66
2022/12/08 04:33:44;;;;;;;12.53;8.20;;;0.10;99.90;;;;;;5013019;28;20187;-66
2022/12/08 04:36:09;;;;;;;10.53;7.43;;;0.10;99.90;;;;;;5013247;28;20195;-67
2022/12/08 04:38:35;;;;;;;10.33;7.30;;;0.10;99.90;;;;;;5012383;28;20448;-68
2022/12/08 04:41:01;;;;;;;11.13;7.50;;;0.10;99.90;;;;;;5021108;28;20241;-66
2022/12/08 04:43:26;;;;;;;8.63;7.10;;;0.10;99.90;;;;;;5012740;28;20191;-66
2022/12/08 04:45:52;;;;;;;11.70;8.03;;;0.10;99.90;;;;;;5012848;28;20191;-67
2022/12/08 04:48:18;;;;;;;10.07;8.33;;;0.00;99.90;;;;;;5013120;28;20183;-66
2022/12/08 04:50:44;;;;;;;11.03;9.33;;;0.00;99.90;;;;;;5018379;28;20664;-66
2022/12/08 04:53:11;;;;;;;12.80;7.30;;;-0.10;99.90;;;;;;5018075;28;20249;-66
2022/12/08 04:55:40;;;;;;;10.37;7.53;;;-0.10;99.90;;;;;;5024091;28;20499;-66
2022/12/08 04:58:06;;;;;;;10.77;7.73;;;-0.10;99.90;;;;;;5021368;28;20489;-66
2022/12/08 05:00:32;;;;;;;12.27;8.00;;;-0.10;99.90;;;;;;5024798;28;20522;-66
2022/12/08 05:02:58;;;;;;;10.43;7.17;;;-0.10;99.90;;;;;;5019530;28;20438;-66
2022/12/08 05:05:23;;;;;;;8.80;7.20;;;-0.10;99.90;;;;;;5011874;28;20663;-68
2022/12/08 05:07:49;;;;;;;12.97;7.83;;;-0.10;99.90;;;;;;5012578;28;20190;-66
2022/12/08 05:10:14;;;;;;;11.90;7.73;;;-0.10;99.90;;;;;;5042384;23;20690;-71
2022/12/08 05:12:40;;;;;;;10.20;6.90;;;-0.10;99.90;;;;;;5031107;28;20289;-71
2022/12/08 05:15:06;;;;;;;10.70;7.30;;;-0.20;99.90;;;;;;5033892;28;20186;-70
2022/12/08 05:17:31;;;;;;;10.90;6.67;;;-0.20;99.90;;;;;;5039382;28;20232;-71
2022/12/08 05:19:57;;;;;;;8.80;7.13;;;-0.20;99.90;;;;;;5032446;28;20476;-71
2022/12/08 05:22:22;;;;;;;8.63;6.63;;;-0.20;99.90;;;;;;5032068;28;20175;-71
2022/12/08 05:24:48;;;;;;;9.30;6.77;;;-0.20;99.90;;;;;;5031019;28;20175;-70
2022/12/08 05:27:14;;;;;;;12.90;8.70;;;-0.20;99.90;;;;;;5033529;28;20266;-70
2022/12/08 05:29:39;;;;;;;10.27;6.73;;;-0.20;99.90;;;;;;5029599;28;20252;-71
2022/12/08 05:32:05;;;;;;;10.90;7.80;;;-0.20;99.90;;;;;;5029746;28;20433;-70
2022/12/08 05:34:30;;;;;;;8.97;8.00;;;-0.20;99.90;;;;;;5030182;28;20593;-70
2022/12/08 05:36:56;;;;;;;10.10;7.17;;;-0.20;99.90;;;;;;5032192;28;20221;-70
2022/12/08 05:39:22;;;;;;;8.80;6.57;;;-0.20;99.90;;;;;;5032467;28;20249;-70
2022/12/08 05:41:47;;;;;;;9.27;6.67;;;-0.20;99.90;;;;;;5028290;28;20206;-71
2022/12/08 05:44:13;;;;;;;14.87;8.77;;;-0.20;99.90;;;;;;5032482;28;20253;-69
2022/12/08 05:46:38;;;;;;;13.13;8.80;;;-0.30;99.90;;;;;;5031734;28;20182;-70
2022/12/08 05:49:04;;;;;;;8.97;6.77;;;-0.30;99.90;;;;;;5032275;28;20663;-69
2022/12/08 05:51:29;;;;;;;8.57;6.10;;;-0.30;99.90;;;;;;5031440;28;20193;-69
2022/12/08 05:53:56;;;;;;;12.57;7.33;;;-0.30;99.90;;;;;;5027890;28;20645;-71
2022/12/08 05:56:22;;;;;;;9.30;6.60;;;-0.40;99.90;;;;;;5028443;28;20193;-71
2022/12/08 05:58:48;;;;;;;12.97;7.90;;;-0.40;99.90;;;;;;5028928;28;20872;-71
2022/12/08 06:01:29;;;;;;;9.60;7.50;;;-0.40;99.90;;;;;;5031958;28;20539;-70
2022/12/08 06:03:57;;;;;;;19.00;12.10;;;-0.40;99.90;;;;;;5031360;28;20970;-70
2022/12/08 06:06:23;;;;;;;12.60;8.43;;;-0.40;99.90;;;;;;5041482;28;20428;-70
2022/12/08 06:08:49;;;;;;;9.63;6.67;;;-0.50;99.90;;;;;;5033208;28;20409;-70
2022/12/08 06:11:23;;;;;;;12.80;8.07;;;-0.50;99.90;;;;;;5033407;28;20210;-71
2022/12/08 06:13:49;;;;;;;7.80;5.80;;;-0.50;99.90;;;;;;5033332;28;20408;-70
2022/12/08 06:16:15;;;;;;;6.60;5.47;;;-0.50;99.90;;;;;;5032900;28;20815;-70
2022/12/08 06:18:41;;;;;;;15.23;6.50;;;-0.50;99.90;;;;;;5032932;28;20507;-70
2022/12/08 06:21:09;;;;;;;14.33;7.60;;;-0.50;99.90;;;;;;5033055;28;20197;-69
2022/12/08 06:23:35;;;;;;;10.73;7.70;;;-0.50;99.90;;;;;;5032997;28;20210;-69
2022/12/08 06:26:10;;;;;;;12.10;8.00;;;-0.50;99.90;;;;;;5033148;28;20503;-69
2022/12/08 06:28:36;;;;;;;19.43;8.50;;;-0.60;99.90;;;;;;5032815;28;20170;-70
2022/12/08 06:31:11;;;;;;;14.87;9.10;;;-0.60;99.90;;;;;;5032890;28;20982;-70
2022/12/08 06:33:36;;;;;;;11.77;7.33;;;-0.60;99.90;;;;;;5033036;28;20165;-70
2022/12/08 06:36:03;;;;;;;8.97;6.97;;;-0.50;99.90;;;;;;5032894;28;20424;-70
2022/12/08 06:38:29;;;;;;;8.90;7.00;;;-0.50;99.90;;;;;;5032592;28;20504;-70
2022/12/08 06:40:56;;;;;;;10.30;6.47;;;-0.50;99.90;;;;;;5032727;28;20544;-70
2022/12/08 06:43:22;;;;;;;10.97;7.67;;;-0.40;99.90;;;;;;5032545;28;20166;-70
2022/12/08 06:45:48;;;;;;;10.40;6.97;;;-0.40;99.90;;;;;;5032660;28;20441;-70
2022/12/08 06:48:13;;;;;;;10.27;7.70;;;-0.40;99.90;;;;;;5032447;28;20475;-69
2022/12/08 06:50:39;;;;;;;8.20;6.73;;;-0.30;99.90;;;;;;5032624;28;20206;-70
2022/12/08 06:53:04;;;;;;;9.50;6.70;;;-0.40;99.90;;;;;;5032622;28;20209;-71
2022/12/08 06:55:30;;;;;;;12.60;7.10;;;-0.40;99.90;;;;;;5032675;28;20198;-71
2022/12/08 06:57:55;;;;;;;9.03;5.53;;;-0.40;99.90;;;;;;5032543;28;20197;-70
2022/12/08 07:00:21;;;;;;;10.20;7.17;;;-0.40;99.90;;;;;;5032085;28;20198;-70
2022/12/08 07:02:47;;;;;;;9.57;6.67;;;-0.40;99.90;;;;;;5032495;28;20170;-70
2022/12/08 07:05:13;;;;;;;8.37;6.10;;;-0.40;99.90;;;;;;5032340;28;20540;-69
2022/12/08 07:07:39;;;;;;;9.87;6.90;;;-0.30;99.90;;;;;;5032531;28;20443;-69
2022/12/08 07:10:05;;;;;;;9.57;6.40;;;-0.30;99.90;;;;;;5030666;28;20271;-70
2022/12/08 07:12:31;;;;;;;11.20;5.63;;;-0.30;99.90;;;;;;5032378;28;20474;-70
2022/12/08 07:14:57;;;;;;;10.27;7.20;;;-0.30;99.90;;;;;;5032198;28;20923;-69
2022/12/08 07:17:22;;;;;;;9.40;7.30;;;-0.30;99.90;;;;;;5032024;28;20170;-70
2022/12/08 07:19:48;;;;;;;9.87;6.43;;;-0.30;99.90;;;;;;5031447;28;20194;-71
2022/12/08 07:22:13;;;;;;;9.27;6.47;;;-0.40;99.90;;;;;;5032115;28;20690;-69
2022/12/08 07:24:39;;;;;;;11.70;6.77;;;-0.40;99.90;;;;;;5032124;28;20178;-71
2022/12/08 07:27:04;;;;;;;8.53;6.20;;;-0.40;99.90;;;;;;5030968;28;20211;-70
2022/12/08 07:29:30;;;;;;;12.93;6.83;;;-0.30;99.90;;;;;;5031761;28;20200;-69
2022/12/08 07:31:55;;;;;;;10.80;7.20;;;-0.30;99.90;;;;;;5032088;28;20174;-70
2022/12/08 07:34:21;;;;;;;13.13;8.00;;;-0.30;99.90;;;;;;5032215;28;20170;-70
2022/12/08 07:36:46;;;;;;;12.30;7.03;;;-0.20;99.90;;;;;;5032166;28;20762;-70
2022/12/08 07:39:12;;;;;;;12.83;8.73;;;-0.10;99.90;;;;;;5031785;28;20691;-71
2022/12/08 07:41:37;;;;;;;8.53;6.83;;;-0.10;99.90;;;;;;5031687;28;20198;-70
2022/12/08 07:44:03;;;;;;;15.50;9.30;;;0.20;99.90;;;;;;5012672;28;20181;-69
2022/12/08 07:46:29;;;;;;;9.43;7.67;;;0.90;99.90;;;;;;5012353;28;20166;-70
2022/12/08 07:48:55;;;;;;;10.60;6.97;;;1.80;99.90;;;;;;5011837;28;20209;-70
2022/12/08 07:51:21;;;;;;;9.97;6.57;;;2.50;99.90;;;;;;5012133;28;20167;-70
2022/12/08 07:53:49;;;;;;;10.83;6.83;;;3.10;99.90;;;;;;5012121;28;20421;-70
2022/12/08 07:56:14;;;;;;;9.00;6.67;;;4.10;99.90;;;;;;5013700;28;20436;-70
2022/12/08 07:58:40;;;;;;;15.87;8.77;;;5.20;99.90;;;;;;5017101;28;20438;-68
2022/12/08 08:01:16;;;;;;;10.00;9.00;;;5.70;99.90;;;;;;5034939;28;20210;-68
2022/12/08 08:03:42;;;;;;;11.10;8.73;;;6.50;99.90;;;;;;5034384;28;20432;-70
2022/12/08 08:06:07;;;;;;;9.43;8.23;;;7.50;99.90;;;;;;5026116;28;20450;-70
2022/12/08 08:08:33;;;;;;;12.50;9.30;;;8.40;99.90;;;;;;5008247;28;20186;-66
2022/12/08 08:10:58;;;;;;;14.03;7.90;;;8.80;99.90;;;;;;5041215;28;20205;-69
2022/12/08 08:13:24;;;;;;;11.57;9.73;;;9.30;99.90;;;;;;5055605;28;20168;-67
2022/12/08 08:15:49;;;;;;;13.43;12.03;;;9.90;99.90;;;;;;5055588;28;20205;-68
2022/12/08 08:18:15;;;;;;;15.73;13.37;;;10.80;99.90;;;;;;5030659;28;20177;-68
2022/12/08 08:20:40;;;;;;;15.73;14.10;;;11.40;99.90;;;;;;5035490;28;20285;-68
2022/12/08 08:23:06;;;;;;;18.00;13.97;;;11.90;98.80;;;;;;5035605;28;20166;-69
2022/12/08 08:25:31;;;;;;;11.27;9.10;;;11.30;98.00;;;;;;5035445;28;20644;-69
2022/12/08 08:27:57;;;;;;;9.23;8.27;;;11.60;98.20;;;;;;5031885;28;20644;-68
2022/12/08 08:30:23;;;;;;;12.60;9.63;;;12.40;96.10;;;;;;5029697;28;20194;-69
2022/12/08 08:32:49;;;;;;;12.83;9.73;;;13.00;94.50;;;;;;5029276;28;20553;-68
2022/12/08 08:35:14;;;;;;;9.50;8.27;;;13.80;92.80;;;;;;5034306;28;20182;-69
2022/12/08 08:37:40;;;;;;;10.47;9.10;;;14.40;90.90;;;;;;5027350;28;20479;-68
2022/12/08 08:40:06;;;;;;;8.20;7.00;;;14.20;88.60;;;;;;5014678;28;20261;-69
2022/12/08 08:42:32;;;;;;;8.47;7.60;;;14.10;85.10;;;;;;5016203;28;20171;-69
2022/12/08 08:44:57;;;;;;;9.27;7.60;;;14.60;85.40;;;;;;5023156;28;20869;-73
2022/12/08 08:47:23;;;;;;;15.50;10.20;;;15.00;83.00;;;;;;5024650;28;20648;-68
2022/12/08 08:49:48;;;;;;;13.50;10.70;;;15.20;79.40;;;;;;5024469;28;20194;-70
2022/12/08 08:52:14;;;;;;;17.10;13.80;;;14.30;79.90;;;;;;5034892;28;20178;-68
2022/12/08 08:54:39;;;;;;;14.37;12.87;;;13.00;82.40;;;;;;5034384;28;20206;-70
2022/12/08 08:57:05;;;;;;;12.50;11.20;;;13.00;86.50;;;;;;5031305;28;20224;-69
2022/12/08 08:59:30;;;;;;;8.93;8.03;;;13.10;86.00;;;;;;5034654;28;20250;-68
2022/12/08 09:01:56;;;;;;;10.07;7.70;;;12.70;86.40;;;;;;5027734;28;20309;-68
2022/12/08 09:04:22;;;;;;;10.43;7.17;;;13.40;83.70;;;;;;5015048;28;20640;-69
2022/12/08 09:06:48;;;;;;;7.87;7.17;;;13.80;83.80;;;;;;5018953;28;20647;-69
2022/12/08 09:09:15;;;;;;;7.33;6.73;;;14.10;81.50;;;;;;5033777;28;20495;-69
2022/12/08 09:11:41;;;;;;;7.10;6.50;;;13.80;80.80;;;;;;5033237;28;20482;-68
2022/12/08 09:14:06;;;;;;;8.70;7.90;;;14.00;80.60;;;;;;5031377;28;20527;-68
2022/12/08 09:16:32;;;;;;;7.30;6.70;;;13.30;82.70;;;;;;5017218;28;20973;-68
2022/12/08 09:18:58;;;;;;;7.83;7.13;;;13.40;81.20;;;;;;5034083;28;20636;-67
2022/12/08 09:21:25;;;;;;;10.10;9.00;;;12.50;83.80;;;;;;5033573;28;20205;-68
2022/12/08 09:23:53;;;;;;;9.63;8.37;;;12.10;85.90;;;;;;5034332;28;20177;-67
2022/12/08 09:26:21;;;;;;;8.60;7.70;;;11.80;86.90;;;;;;5030884;28;21305;-68
2022/12/08 09:28:48;;;;;;;7.97;6.90;;;11.20;90.10;;;;;;5033042;28;20973;-68
2022/12/08 09:31:15;;;;;;;7.80;7.20;;;11.30;90.90;;;;;;5034128;28;20514;-68
2022/12/08 09:33:41;;;;;;;8.17;7.57;;;11.40;89.90;;;;;;5024174;28;20426;-67
2022/12/08 09:36:08;;;;;;;7.87;7.17;;;10.90;91.10;;;;;;5031524;28;20471;-67
2022/12/08 09:38:34;;;;;;;10.13;9.10;;;10.90;91.90;;;;;;5032903;28;20178;-67
2022/12/08 09:41:02;;;;;;;8.50;7.70;;;10.30;93.70;;;;;;5016026;28;20457;-68
2022/12/08 09:44:01;;;;;;;8.97;8.17;;;10.60;93.50;;;;;;5014354;28;20621;-68
2022/12/08 09:46:30;;;;;;;7.77;6.97;;;11.90;91.00;;;;;;5025295;28;20968;-69
2022/12/08 09:48:58;;;;;;;8.50;6.23;;;12.00;89.40;;;;;;5033548;28;20409;-69
2022/12/08 09:51:26;;;;;;;7.63;6.70;;;11.90;87.80;;;;;;5033613;28;20499;-68
2022/12/08 09:54:19;;;;;;;7.27;6.60;;;12.90;86.70;;;;;;5033457;28;20420;-69
2022/12/08 09:56:44;;;;;;;6.50;6.00;;;12.20;85.00;;;;;;5029947;28;20412;-69
2022/12/08 09:59:27;;;;;;;7.60;6.90;;;12.50;86.20;;;;;;5014438;28;20422;-69
2022/12/08 10:01:53;;;;;;;7.17;6.57;;;12.20;86.80;;;;;;5016226;28;20544;-69
2022/12/08 10:04:32;;;;;;;8.03;7.33;;;11.90;88.00;;;;;;5019607;28;20426;-69
2022/12/08 10:07:03;;;;;;;8.90;7.23;;;12.20;86.80;;;;;;5023521;28;21083;-70
2022/12/08 10:09:44;;;;;;;7.73;6.57;;;12.00;88.00;;;;;;5025349;28;20462;-69
2022/12/08 10:12:28;;;;;;;6.77;5.97;;;11.80;88.20;;;;;;5033084;28;20420;-69
2022/12/08 10:15:20;;;;;;;7.00;6.40;;;12.70;85.70;;;;;;5033187;28;20433;-69
2022/12/08 10:17:49;;;;;;;7.23;6.53;;;13.00;83.90;;;;;;5018720;28;20950;-67
2022/12/08 10:20:36;;;;;;;6.20;5.60;;;14.10;81.70;;;;;;5031987;28;20476;-69
2022/12/08 10:23:25;;;;;;;6.40;5.90;;;13.40;80.70;;;;;;5016455;28;20426;-69
2022/12/08 10:26:01;;;;;;;7.13;6.53;;;13.60;79.60;;;;;;5007322;28;20430;-66
2022/12/08 10:28:26;;;;;;;7.87;7.07;;;14.20;79.50;;;;;;5030380;28;20420;-70
2022/12/08 10:30:52;;;;;;;6.50;5.90;;;14.50;75.50;;;;;;5033057;28;20968;-69
2022/12/08 10:33:20;;;;;;;7.50;6.10;;;13.70;77.60;;;;;;5032919;28;20182;-69
2022/12/08 10:35:49;;;;;;;6.50;5.90;;;12.80;80.70;;;;;;5031883;28;20186;-69
2022/12/08 10:38:20;;;;;;;7.20;6.50;;;12.90;82.50;;;;;;5029105;28;20439;-68
2022/12/08 10:40:46;;;;;;;6.47;5.97;;;14.20;78.40;;;;;;5032283;28;20469;-69
2022/12/08 10:43:20;;;;;;;5.93;5.33;;;15.70;73.70;;;;;;5015086;28;20790;-68
2022/12/08 10:45:46;;;;;;;6.57;6.03;;;15.80;68.50;;;;;;5014244;28;20414;-69
2022/12/08 10:48:20;;;;;;;5.43;5.03;;;15.20;69.50;;;;;;5018332;28;20440;-68
2022/12/08 10:50:54;;;;;;;5.30;4.90;;;14.50;71.70;;;;;;5012954;28;20285;-69
2022/12/08 10:53:31;;;;;;;7.10;6.50;;;15.00;70.80;;;;;;5024560;28;21026;-69
2022/12/08 10:56:02;;;;;;;6.33;5.73;;;15.30;70.20;;;;;;5031349;28;20917;-68
2022/12/08 10:58:29;;;;;;;6.30;5.80;;;15.90;68.90;;;;;;5030684;28;20432;-70
2022/12/08 11:01:19;;;;;;;5.73;5.23;;;16.60;64.60;;;;;;5015546;28;20527;-68
2022/12/08 11:03:49;;;;;;;6.13;5.53;;;16.20;65.40;;;;;;5012282;28;20499;-68
2022/12/08 11:06:22;;;;;;;6.37;5.87;;;16.90;63.30;;;;;;5021700;28;20515;-69
2022/12/08 11:08:59;;;;;;;5.57;5.03;;;17.10;61.60;;;;;;5031476;28;20449;-69
2022/12/08 11:11:44;;;;;;;5.37;4.87;;;17.30;60.60;;;;;;5031382;28;20913;-69
2022/12/08 11:14:17;;;;;;;5.43;4.90;;;16.00;61.90;;;;;;5015732;28;20430;-69
2022/12/08 11:16:43;;;;;;;5.50;5.00;;;15.80;62.50;;;;;;5015709;28;20433;-67
2022/12/08 11:19:17;;;;;;;5.20;4.80;;;16.40;62.70;;;;;;5023445;28;20429;-67
2022/12/08 11:21:43;;;;;;;5.67;5.17;;;17.20;59.70;;;;;;5021587;28;20514;-69
2022/12/08 11:24:14;;;;;;;5.37;4.97;;;17.70;58.60;;;;;;5023878;28;20930;-68
2022/12/08 11:26:49;;;;;;;5.67;5.17;;;18.80;55.80;;;;;;5020892;28;20417;-67
2022/12/08 11:29:16;;;;;;;5.00;4.50;;;20.00;54.30;;;;;;5024674;28;20541;-68
2022/12/08 11:31:58;;;;;;;5.60;5.10;;;21.20;51.30;;;;;;5030258;28;20460;-69
2022/12/08 11:34:39;;;;;;;5.67;5.17;;;19.70;50.80;;;;;;5019907;28;20428;-66
2022/12/08 11:37:09;;;;;;;6.43;5.57;;;20.00;52.00;;;;;;5020972;28;20429;-67
2022/12/08 11:39:42;;;;;;;6.77;6.10;;;21.10;49.60;;;;;;5031104;28;20591;-68
2022/12/08 11:42:13;;;;;;;5.70;5.30;;;19.10;49.40;;;;;;5016055;28;20528;-68
2022/12/08 11:44:50;;;;;;;6.23;5.70;;;17.10;52.40;;;;;;5029248;28;20433;-66
2022/12/08 11:47:25;;;;;;;6.20;5.60;;;16.60;54.10;;;;;;5020479;28;20436;-68
2022/12/08 11:50:00;;;;;;;6.80;5.50;;;16.60;54.70;;;;;;5013808;28;20444;-68
2022/12/08 11:52:31;;;;;;;5.80;5.30;;;15.90;54.80;;;;;;5020361;28;20800;-67
2022/12/08 11:55:03;;;;;;;6.30;5.80;;;14.50;58.10;;;;;;5012124;28;20414;-67
2022/12/08 11:57:29;;;;;;;5.37;4.87;;;12.40;62.40;;;;;;5019330;28;20457;-67
2022/12/08 11:59:56;;;;;;;6.00;5.40;;;12.30;67.10;;;;;;5011684;28;21038;-67
2022/12/08 12:02:28;;;;;;;6.77;6.07;;;12.70;65.00;;;;;;5012051;28;20785;-67
2022/12/08 12:05:05;;;;;;;6.70;5.60;;;11.70;69.40;;;;;;5020754;28;20422;-68
2022/12/08 12:07:51;;;;;;;8.33;5.73;;;10.70;74.80;;;;;;5022067;28;20424;-68
2022/12/08 12:10:46;;;;;;;6.17;5.57;;;10.40;79.30;;;;;;5030767;28;20464;-68
2022/12/08 12:13:30;;;;;;;4.53;4.13;;;9.90;84.50;;;;;;5031774;28;20830;-67
2022/12/08 12:16:11;;;;;;;5.77;4.33;;;10.30;82.30;;;;;;5029755;28;20431;-65
2022/12/08 12:18:49;;;;;;;4.97;4.00;;;9.80;83.80;;;;;;5017695;28;20778;-68
2022/12/08 12:21:25;;;;;;;6.23;4.30;;;10.40;83.30;;;;;;5011749;28;20461;-68
2022/12/08 12:24:06;;;;;;;4.63;4.23;;;11.60;75.20;;;;;;5011097;28;20420;-68
2022/12/08 12:26:36;;;;;;;5.37;4.87;;;11.50;75.40;;;;;;5014553;28;20431;-68
2022/12/08 12:29:05;;;;;;;6.23;5.73;;;12.30;73.40;;;;;;5030280;28;20459;-69
2022/12/08 12:31:36;;;;;;;7.40;5.30;;;13.60;69.20;;;;;;5016626;28;20433;-68
2022/12/08 12:34:49;;;;;;;4.90;4.50;;;15.30;63.50;;;;;;5031636;28;20437;-68
2022/12/08 12:37:33;;;;;;;4.20;3.90;;;16.10;59.50;;;;;;5023184;28;20447;-69
2022/12/08 12:40:02;;;;;;;6.57;5.27;;;17.80;55.80;;;;;;5031231;28;20475;-68
2022/12/08 12:42:50;;;;;;;6.70;6.00;;;18.70;52.70;;;;;;5022197;28;20429;-68
2022/12/08 12:45:15;;;;;;;5.33;4.80;;;17.20;54.50;;;;;;5015194;28;20910;-68
2022/12/08 12:47:57;;;;;;;5.30;4.90;;;16.60;54.80;;;;;;5026510;28;20508;-68
2022/12/08 12:50:32;;;;;;;5.30;4.80;;;15.60;55.60;;;;;;5032762;28;20221;-67
2022/12/08 12:53:18;;;;;;;7.00;6.20;;;13.50;59.00;;;;;;5034497;28;20447;-68
2022/12/08 12:55:59;;;;;;;7.30;5.80;;;12.40;64.20;;;;;;4993710;28;20617;-67
2022/12/08 12:58:27;;;;;;;5.67;5.17;;;11.80;66.90;;;;;;5032837;28;20526;-68
2022/12/08 13:01:11;;;;;;;6.33;5.40;;;12.30;67.60;;;;;;5033716;28;20469;-69
2022/12/08 13:03:40;;;;;;;5.10;4.60;;;13.60;64.30;;;;;;5034799;28;20930;-68